Time;durP1;ratioP1;P1;durP2;ratioP2;P2;SDS_P1;SDS_P2;PMS_P1;PMS_P2;Temp;Humidity;BMP_temperature;BMP_pressure;BME280_temperature;BME280_humidity;BME280_pressure;Samples;Min_cycle;Max_cycle;Signal;HPM_P1;HPM_P2
2022/06/14 00:00:53;;;;;;;6.17;5.63;;;11.60;99.90;;;;;;5035858;28;20270;-67
2022/06/14 00:03:20;;;;;;;6.60;5.93;;;11.50;99.90;;;;;;5032755;28;20272;-66
2022/06/14 00:05:46;;;;;;;8.07;5.63;;;11.50;99.90;;;;;;5047507;28;20193;-64
2022/06/14 00:08:13;;;;;;;6.27;5.67;;;11.40;99.90;;;;;;5052465;28;20654;-66
2022/06/14 00:10:39;;;;;;;5.77;5.40;;;11.40;99.90;;;;;;5050872;28;20708;-67
2022/06/14 00:13:05;;;;;;;7.60;6.20;;;11.40;99.90;;;;;;5052670;28;20562;-66
2022/06/14 00:15:31;;;;;;;9.97;6.07;;;11.30;99.90;;;;;;5040029;28;20202;-66
2022/06/14 00:17:57;;;;;;;7.17;6.03;;;11.30;99.90;;;;;;5032519;28;20196;-65
2022/06/14 00:20:23;;;;;;;6.10;5.60;;;11.30;99.90;;;;;;5042486;28;20190;-65
2022/06/14 00:22:48;;;;;;;6.60;5.80;;;11.30;99.90;;;;;;5052370;28;20201;-64
2022/06/14 00:25:25;;;;;;;6.20;5.70;;;11.20;99.90;;;;;;5050196;28;20179;-63
2022/06/14 00:27:51;;;;;;;6.27;5.67;;;11.20;99.90;;;;;;5052166;28;20588;-64
2022/06/14 00:30:17;;;;;;;9.33;6.50;;;11.10;99.90;;;;;;5043710;28;20627;-65
2022/06/14 00:32:42;;;;;;;6.10;5.50;;;11.10;99.90;;;;;;5032224;28;20294;-64
2022/06/14 00:35:08;;;;;;;6.83;6.10;;;11.10;99.90;;;;;;5038319;28;20185;-64
2022/06/14 00:37:34;;;;;;;6.40;5.87;;;11.10;99.90;;;;;;5052337;28;20183;-64
2022/06/14 00:40:00;;;;;;;6.50;5.90;;;11.20;99.90;;;;;;5046974;28;20206;-65
2022/06/14 00:42:25;;;;;;;6.40;5.90;;;11.10;99.90;;;;;;5032053;28;20179;-64
2022/06/14 00:45:26;;;;;;;13.00;6.40;;;11.00;99.90;;;;;;5034626;28;20700;-65
2022/06/14 00:48:02;;;;;;;7.63;6.27;;;10.90;99.90;;;;;;4999087;28;20217;-66
2022/06/14 00:50:34;;;;;;;6.83;6.23;;;10.80;99.90;;;;;;5043514;28;20190;-67
2022/06/14 00:53:06;;;;;;;9.93;5.83;;;10.70;99.90;;;;;;5034515;28;20625;-66
2022/06/14 00:55:38;;;;;;;8.77;6.03;;;10.70;99.90;;;;;;5051522;28;20189;-66
2022/06/14 00:58:10;;;;;;;7.90;6.23;;;10.70;99.90;;;;;;5048664;28;20210;-66
2022/06/14 01:00:44;;;;;;;6.77;6.17;;;10.80;99.90;;;;;;5031852;28;20182;-65
2022/06/14 01:03:18;;;;;;;10.83;6.50;;;10.70;99.90;;;;;;5034706;28;20213;-67
2022/06/14 01:06:08;;;;;;;9.67;6.93;;;10.70;99.90;;;;;;5051492;28;20214;-64
2022/06/14 01:08:44;;;;;;;8.30;6.50;;;10.70;99.90;;;;;;5045401;28;20199;-65
2022/06/14 01:11:15;;;;;;;8.17;6.30;;;10.70;99.90;;;;;;5031477;28;20702;-65
2022/06/14 01:13:41;;;;;;;7.73;5.93;;;10.60;99.90;;;;;;5037447;28;20207;-66
2022/06/14 01:16:09;;;;;;;7.07;6.57;;;10.60;99.90;;;;;;5051537;28;20174;-66
2022/06/14 01:18:37;;;;;;;9.13;6.27;;;10.50;99.90;;;;;;5046678;28;20222;-67
2022/06/14 01:21:03;;;;;;;7.20;6.10;;;10.40;99.90;;;;;;5034453;28;20262;-64
2022/06/14 01:23:28;;;;;;;8.63;6.73;;;10.40;99.90;;;;;;5051049;28;20266;-65
2022/06/14 01:26:04;;;;;;;6.90;6.30;;;10.40;99.90;;;;;;5049690;28;20232;-67
2022/06/14 01:28:30;;;;;;;6.57;6.07;;;10.40;99.90;;;;;;5031216;28;20218;-67
2022/06/14 01:30:56;;;;;;;7.33;6.17;;;10.40;99.90;;;;;;5032027;28;20175;-67
2022/06/14 01:33:28;;;;;;;7.70;6.90;;;10.40;99.90;;;;;;5050857;28;20265;-66
2022/06/14 01:36:04;;;;;;;9.53;6.13;;;10.40;99.90;;;;;;5050791;28;20166;-65
2022/06/14 01:38:30;;;;;;;6.87;6.13;;;10.40;99.90;;;;;;5031224;28;20203;-64
2022/06/14 01:41:25;;;;;;;8.97;6.70;;;10.50;99.90;;;;;;5031198;28;20172;-64
2022/06/14 01:44:22;;;;;;;11.70;6.47;;;10.40;99.90;;;;;;5030965;28;20233;-66
2022/06/14 01:47:03;;;;;;;6.57;5.83;;;10.40;99.90;;;;;;5031442;28;20172;-65
2022/06/14 01:52:43;;;;;;;6.80;6.10;;;10.30;99.90;;;;;;5031087;28;20290;-66
2022/06/14 01:55:21;;;;;;;11.07;6.50;;;10.20;99.90;;;;;;5031644;28;20315;-64
2022/06/14 01:58:13;;;;;;;11.03;6.97;;;10.20;99.90;;;;;;5031110;28;20172;-65
2022/06/14 02:00:50;;;;;;;8.33;6.37;;;10.20;99.90;;;;;;5050364;28;20182;-66
2022/06/14 02:06:20;;;;;;;7.73;6.20;;;10.10;99.90;;;;;;5035376;28;20550;-64
2022/06/14 02:09:01;;;;;;;6.30;5.80;;;10.10;99.90;;;;;;5035391;28;21409;-66
2022/06/14 02:11:32;;;;;;;7.73;5.90;;;10.10;99.90;;;;;;5034844;28;20664;-64
2022/06/14 02:14:18;;;;;;;11.33;6.73;;;10.10;99.90;;;;;;5038561;28;20726;-64
2022/06/14 02:16:54;;;;;;;10.23;7.57;;;10.00;99.90;;;;;;5050166;28;20262;-65
2022/06/14 02:19:41;;;;;;;10.47;6.70;;;10.00;99.90;;;;;;5034537;28;20721;-67
2022/06/14 02:22:17;;;;;;;8.10;6.57;;;9.90;99.90;;;;;;5041632;28;20662;-66
2022/06/14 02:24:51;;;;;;;12.00;6.03;;;9.80;99.90;;;;;;5054470;28;20189;-65
2022/06/14 02:27:27;;;;;;;6.73;6.13;;;9.80;99.90;;;;;;5050285;28;20183;-66
2022/06/14 02:29:58;;;;;;;13.43;6.40;;;9.80;99.90;;;;;;5047810;28;20217;-64
2022/06/14 02:32:45;;;;;;;9.40;6.37;;;9.80;99.90;;;;;;5054787;28;20213;-64
2022/06/14 02:35:28;;;;;;;14.10;6.63;;;9.80;99.90;;;;;;5054339;28;20170;-66
2022/06/14 02:38:11;;;;;;;11.07;6.43;;;9.70;99.90;;;;;;5054026;28;20189;-67
2022/06/14 02:40:53;;;;;;;13.40;6.27;;;9.70;99.90;;;;;;5054439;28;20194;-66
2022/06/14 02:43:36;;;;;;;9.23;6.47;;;9.70;99.90;;;;;;5052451;28;20273;-66
2022/06/14 02:46:11;;;;;;;10.27;6.67;;;9.60;99.90;;;;;;5054384;28;20190;-67
2022/06/14 02:48:44;;;;;;;10.07;7.63;;;9.60;99.90;;;;;;5037863;28;20720;-66
2022/06/14 02:51:28;;;;;;;7.30;6.50;;;9.50;99.90;;;;;;5034289;28;20202;-65
2022/06/14 02:54:07;;;;;;;14.03;7.57;;;9.50;99.90;;;;;;5051436;28;20270;-67
2022/06/14 02:56:41;;;;;;;10.27;6.93;;;9.50;99.90;;;;;;5054106;28;20174;-67
2022/06/14 02:59:12;;;;;;;10.13;6.50;;;9.40;99.90;;;;;;5034820;28;20729;-65
2022/06/14 03:01:48;;;;;;;8.50;6.80;;;9.40;99.90;;;;;;5034120;28;20623;-67
2022/06/14 03:04:23;;;;;;;13.83;6.97;;;9.40;99.90;;;;;;5052684;28;20186;-66
2022/06/14 03:07:06;;;;;;;10.00;7.03;;;9.30;99.90;;;;;;5054371;28;20174;-66
2022/06/14 03:09:34;;;;;;;12.30;6.50;;;9.30;99.90;;;;;;5033933;28;20202;-64
2022/06/14 03:12:17;;;;;;;8.60;6.93;;;9.30;99.90;;;;;;5034303;28;20207;-64
2022/06/14 03:14:51;;;;;;;11.30;6.77;;;9.30;99.90;;;;;;5033140;28;20521;-64
2022/06/14 03:17:27;;;;;;;7.47;6.70;;;9.30;99.90;;;;;;5052075;28;20558;-63
2022/06/14 03:20:11;;;;;;;7.17;6.57;;;9.40;99.90;;;;;;5053658;28;20194;-64
2022/06/14 03:23:05;;;;;;;11.97;7.47;;;9.30;99.90;;;;;;5033756;28;20175;-62
2022/06/14 03:25:46;;;;;;;13.87;7.33;;;9.30;99.90;;;;;;5033670;28;20261;-62
2022/06/14 03:28:21;;;;;;;10.17;6.63;;;9.30;99.90;;;;;;5015624;28;20543;-64
2022/06/14 03:31:08;;;;;;;13.63;6.83;;;9.20;99.90;;;;;;5037767;28;20177;-65
2022/06/14 03:33:38;;;;;;;17.80;7.50;;;9.30;99.90;;;;;;5052951;28;20292;-65
2022/06/14 03:36:06;;;;;;;12.57;7.10;;;9.30;99.90;;;;;;5047087;28;20535;-65
2022/06/14 03:38:47;;;;;;;9.60;6.90;;;9.30;99.90;;;;;;5037532;28;20202;-60
2022/06/14 03:41:17;;;;;;;13.87;6.70;;;9.20;99.90;;;;;;5053241;28;20175;-65
2022/06/14 03:43:44;;;;;;;8.93;6.97;;;9.20;99.90;;;;;;5051363;28;20626;-65
2022/06/14 03:46:20;;;;;;;7.27;6.57;;;9.20;99.90;;;;;;5053260;28;20171;-65
2022/06/14 03:48:51;;;;;;;6.80;6.30;;;9.20;99.90;;;;;;5045582;28;20210;-64
2022/06/14 03:51:38;;;;;;;11.60;7.03;;;9.10;99.90;;;;;;5033086;28;20176;-65
2022/06/14 03:54:25;;;;;;;7.00;6.40;;;9.10;99.90;;;;;;5041808;28;20182;-65
2022/06/14 03:57:12;;;;;;;8.10;7.27;;;9.10;99.90;;;;;;5052908;28;20171;-67
2022/06/14 04:00:02;;;;;;;9.03;6.97;;;9.20;99.90;;;;;;5039345;28;20199;-65
2022/06/14 04:02:56;;;;;;;16.67;7.30;;;9.20;99.90;;;;;;5032782;28;20175;-67
2022/06/14 04:05:31;;;;;;;8.17;7.43;;;9.20;99.90;;;;;;5051321;28;20179;-67
2022/06/14 04:08:05;;;;;;;11.10;7.40;;;9.20;99.90;;;;;;5036612;28;20236;-65
2022/06/14 04:11:06;;;;;;;12.80;7.30;;;9.30;99.90;;;;;;5032817;28;20176;-66
2022/06/14 04:13:46;;;;;;;10.70;7.30;;;9.40;99.90;;;;;;5032217;28;20300;-67
2022/06/14 04:16:15;;;;;;;11.57;7.80;;;9.50;99.90;;;;;;5032980;28;20251;-65
2022/06/14 04:19:03;;;;;;;11.00;8.30;;;9.70;99.90;;;;;;5032503;28;20679;-67
2022/06/14 04:21:50;;;;;;;8.53;7.73;;;9.70;99.90;;;;;;5034381;28;20168;-65
2022/06/14 04:24:26;;;;;;;11.37;8.00;;;9.90;99.90;;;;;;5051800;28;20182;-66
2022/06/14 04:27:10;;;;;;;8.37;7.57;;;10.20;99.90;;;;;;5032349;28;20175;-66
2022/06/14 04:29:43;;;;;;;9.67;6.80;;;10.50;99.90;;;;;;5033075;28;20690;-66
2022/06/14 04:32:31;;;;;;;9.93;7.30;;;10.70;99.90;;;;;;5032481;28;20230;-65
2022/06/14 04:35:35;;;;;;;8.77;6.43;;;11.00;99.90;;;;;;5038576;28;20167;-65
2022/06/14 04:38:07;;;;;;;13.13;6.87;;;11.40;99.90;;;;;;4951850;29;20209;-65
2022/06/14 04:40:42;;;;;;;7.47;6.63;;;11.60;99.90;;;;;;4940382;29;20561;-65
2022/06/14 04:43:14;;;;;;;6.50;5.90;;;12.00;99.90;;;;;;4989841;28;20201;-66
2022/06/14 04:45:54;;;;;;;9.10;6.77;;;12.20;99.90;;;;;;5043673;28;20177;-66
2022/06/14 04:48:39;;;;;;;7.17;6.47;;;12.40;99.90;;;;;;5051862;28;20688;-65
2022/06/14 04:51:24;;;;;;;8.63;6.97;;;12.70;99.90;;;;;;5036822;28;20180;-66
2022/06/14 04:54:02;;;;;;;8.80;6.30;;;13.00;99.90;;;;;;5031594;28;20214;-66
2022/06/14 04:56:34;;;;;;;7.30;6.47;;;13.40;99.90;;;;;;5049226;28;20179;-66
2022/06/14 04:59:09;;;;;;;12.37;5.67;;;13.70;99.90;;;;;;5051689;28;20195;-63
2022/06/14 05:01:42;;;;;;;10.90;5.93;;;13.90;99.90;;;;;;5034500;28;20182;-64
2022/06/14 05:04:14;;;;;;;7.53;6.57;;;14.20;99.90;;;;;;5031520;28;20171;-65
2022/06/14 05:06:53;;;;;;;7.27;6.43;;;14.30;99.90;;;;;;5049876;28;20178;-64
2022/06/14 05:09:22;;;;;;;7.83;6.03;;;14.40;99.90;;;;;;5051432;28;20253;-65
2022/06/14 05:12:10;;;;;;;9.30;6.87;;;14.50;99.90;;;;;;5032875;28;20203;-65
2022/06/14 05:14:42;;;;;;;8.33;6.60;;;14.60;99.90;;;;;;5051005;28;20179;-65
2022/06/14 05:17:24;;;;;;;10.50;6.50;;;14.80;99.90;;;;;;5051561;28;20189;-65
2022/06/14 05:20:04;;;;;;;6.83;6.23;;;14.80;99.90;;;;;;5031790;28;20207;-65
2022/06/14 05:22:33;;;;;;;9.50;6.43;;;14.90;99.90;;;;;;5031764;28;20182;-64
2022/06/14 05:25:00;;;;;;;19.10;6.80;;;15.10;99.90;;;;;;5031139;28;20206;-65
2022/06/14 05:27:31;;;;;;;11.47;6.40;;;15.20;99.90;;;;;;5031240;28;20199;-65
2022/06/14 05:30:06;;;;;;;7.03;6.33;;;15.40;99.90;;;;;;5051227;28;20226;-65
2022/06/14 05:32:53;;;;;;;7.00;6.30;;;15.60;99.90;;;;;;5050500;28;20279;-65
2022/06/14 05:35:38;;;;;;;9.87;6.10;;;15.80;99.90;;;;;;5030964;28;20179;-65
2022/06/14 05:38:22;;;;;;;10.17;5.70;;;16.10;99.90;;;;;;5035329;28;20206;-65
2022/06/14 05:41:18;;;;;;;7.87;5.90;;;16.50;99.90;;;;;;5051257;28;20524;-65
2022/06/14 05:43:49;;;;;;;10.67;6.37;;;16.80;99.90;;;;;;4997982;28;20675;-65
2022/06/14 05:46:41;;;;;;;9.27;5.90;;;17.10;99.90;;;;;;5031145;28;20175;-65
2022/06/14 05:49:13;;;;;;;9.53;6.03;;;17.30;99.90;;;;;;5050500;28;20681;-64
2022/06/14 05:51:55;;;;;;;12.40;6.20;;;17.60;99.90;;;;;;5051082;28;20224;-65
2022/06/14 05:54:32;;;;;;;8.77;5.50;;;17.70;99.90;;;;;;5030797;28;20730;-65
2022/06/14 05:57:20;;;;;;;8.93;6.00;;;18.00;99.90;;;;;;5031380;28;20178;-64
2022/06/14 06:00:00;;;;;;;6.37;5.77;;;18.30;99.90;;;;;;5050730;28;20213;-65
2022/06/14 06:02:39;;;;;;;15.13;6.33;;;18.80;99.90;;;;;;5034583;28;20190;-65
2022/06/14 06:05:17;;;;;;;7.37;5.90;;;18.90;99.90;;;;;;5030636;28;20178;-64
2022/06/14 06:07:57;;;;;;;5.85;5.32;;;18.90;99.90;;;;;;5048503;28;20178;-65
2022/06/14 06:10:27;;;;;;;11.25;5.85;;;19.20;99.90;;;;;;5050720;28;20193;-64
2022/06/14 06:12:57;;;;;;;6.53;5.65;;;19.70;99.90;;;;;;5031865;28;20294;-66
2022/06/14 06:15:32;;;;;;;9.60;5.53;;;20.00;99.90;;;;;;5030720;28;20171;-65
2022/06/14 06:18:10;;;;;;;7.95;5.80;;;20.20;99.90;;;;;;5049419;28;20301;-64
2022/06/14 06:20:39;;;;;;;6.68;5.43;;;20.50;99.90;;;;;;5051013;28;20646;-64
2022/06/14 06:23:16;;;;;;;8.68;5.82;;;20.70;99.90;;;;;;5031312;28;20175;-65
2022/06/14 06:25:48;;;;;;;8.52;5.05;;;20.70;99.90;;;;;;5030519;28;20233;-65
2022/06/14 06:28:23;;;;;;;7.18;5.00;;;20.90;99.90;;;;;;5031565;28;20215;-65
2022/06/14 06:31:09;;;;;;;7.28;5.50;;;21.30;99.90;;;;;;5030803;28;20179;-65
2022/06/14 06:33:40;;;;;;;11.50;5.38;;;21.70;99.90;;;;;;5041174;28;20261;-65
2022/06/14 06:36:18;;;;;;;8.35;5.72;;;21.60;99.90;;;;;;5030661;28;20213;-65
2022/06/14 06:39:11;;;;;;;6.93;5.13;;;21.30;99.90;;;;;;5030940;28;20195;-65
2022/06/14 06:41:49;;;;;;;11.25;5.60;;;21.00;99.90;;;;;;5030472;28;20172;-65
2022/06/14 06:44:53;;;;;;;5.95;5.20;;;21.20;99.90;;;;;;5035192;28;20175;-65
2022/06/14 06:47:49;;;;;;;8.65;5.25;;;21.50;99.90;;;;;;5050481;28;20167;-65
2022/06/14 06:50:20;;;;;;;6.88;4.55;;;21.90;99.90;;;;;;5040862;28;20186;-65
2022/06/14 06:52:56;;;;;;;10.65;5.53;;;22.40;99.90;;;;;;5034418;28;20679;-65
2022/06/14 06:55:22;;;;;;;7.45;4.85;;;22.80;99.90;;;;;;5034753;28;20187;-66
2022/06/14 06:57:50;;;;;;;8.90;5.55;;;23.00;99.90;;;;;;5034062;28;20221;-66
2022/06/14 07:00:19;;;;;;;9.70;5.55;;;22.90;99.90;;;;;;5045370;28;20196;-65
2022/06/14 07:02:54;;;;;;;5.30;4.72;;;23.10;99.90;;;;;;5053930;28;20178;-67
2022/06/14 07:05:20;;;;;;;14.15;5.88;;;23.30;99.90;;;;;;5051499;28;20235;-66
2022/06/14 07:08:24;;;;;;;5.18;4.68;;;23.40;99.90;;;;;;5053820;28;20178;-64
2022/06/14 07:10:53;;;;;;;7.90;5.85;;;23.30;99.90;;;;;;4988334;28;20226;-66
2022/06/14 07:13:28;;;;;;;9.48;4.95;;;23.70;99.90;;;;;;5033299;28;20206;-65
2022/06/14 07:16:07;;;;;;;9.32;5.10;;;24.20;99.90;;;;;;5048329;28;20185;-67
2022/06/14 07:18:37;;;;;;;9.80;6.18;;;24.10;99.90;;;;;;5053554;28;20609;-67
2022/06/14 07:21:12;;;;;;;9.98;5.20;;;24.00;99.90;;;;;;5052017;28;20609;-67
2022/06/14 07:23:44;;;;;;;7.63;5.35;;;24.40;99.90;;;;;;5053084;28;20217;-66
2022/06/14 07:26:28;;;;;;;7.72;5.47;;;24.60;99.90;;;;;;5037472;28;20203;-65
2022/06/14 07:29:07;;;;;;;7.38;5.53;;;24.50;99.90;;;;;;5033349;28;20560;-66
2022/06/14 07:31:59;;;;;;;5.88;5.03;;;24.70;99.90;;;;;;5051256;28;20523;-65
2022/06/14 07:34:28;;;;;;;6.60;4.80;;;24.70;99.90;;;;;;5052558;28;20175;-65
2022/06/14 07:37:15;;;;;;;11.63;5.78;;;24.70;99.90;;;;;;5052606;28;20167;-66
2022/06/14 07:40:05;;;;;;;7.95;5.40;;;24.60;99.90;;;;;;5052371;28;20248;-65
2022/06/14 07:42:42;;;;;;;10.30;5.50;;;24.70;99.90;;;;;;5053020;28;20533;-66
2022/06/14 07:45:23;;;;;;;11.23;6.82;;;24.80;99.90;;;;;;5047805;28;20187;-66
2022/06/14 07:48:29;;;;;;;7.40;4.82;;;24.50;99.90;;;;;;5035363;28;20191;-65
2022/06/14 07:51:02;;;;;;;10.38;5.43;;;24.60;99.90;;;;;;4952727;29;20644;-66
2022/06/14 07:53:45;;;;;;;10.02;5.05;;;25.00;99.90;;;;;;5033051;28;20625;-67
2022/06/14 07:56:29;;;;;;;10.88;5.95;;;25.40;99.90;;;;;;5032793;28;20168;-66
2022/06/14 07:59:04;;;;;;;8.48;5.18;;;25.60;99.90;;;;;;5042521;28;20190;-65
2022/06/14 08:01:34;;;;;;;8.95;5.03;;;25.40;99.90;;;;;;5051844;28;20181;-66
2022/06/14 08:04:15;;;;;;;8.75;4.93;;;25.70;99.90;;;;;;5042180;28;20639;-67
2022/06/14 08:06:40;;;;;;;5.07;4.47;;;26.20;99.90;;;;;;5033017;28;20186;-66
2022/06/14 08:09:15;;;;;;;8.57;5.13;;;26.40;99.90;;;;;;5042658;28;20194;-67
2022/06/14 08:11:59;;;;;;;5.45;3.97;;;26.30;99.90;;;;;;5052389;28;20175;-66
2022/06/14 08:14:32;;;;;;;6.07;3.85;;;26.30;99.90;;;;;;5050720;28;20175;-68
2022/06/14 08:16:59;;;;;;;5.95;3.67;;;25.90;99.90;;;;;;5052185;28;20167;-66
2022/06/14 08:19:34;;;;;;;6.88;4.00;;;26.20;99.90;;;;;;5032346;28;20218;-67
2022/06/14 08:22:07;;;;;;;6.10;4.47;;;26.50;99.90;;;;;;5032547;28;20203;-66
2022/06/14 08:24:38;;;;;;;5.88;4.60;;;26.50;99.90;;;;;;5032314;28;20191;-66
2022/06/14 08:27:41;;;;;;;5.13;3.95;;;26.00;99.90;;;;;;5032318;28;20167;-65
2022/06/14 08:30:12;;;;;;;7.25;4.47;;;26.10;99.90;;;;;;5052417;28;20649;-66
2022/06/14 08:32:51;;;;;;;6.30;4.60;;;26.50;99.90;;;;;;5051369;28;20252;-67
2022/06/14 08:35:49;;;;;;;6.20;4.40;;;26.80;99.90;;;;;;5051691;28;20638;-66
2022/06/14 08:38:33;;;;;;;6.20;4.40;;;27.30;99.90;;;;;;5024594;28;20231;-66
2022/06/14 08:41:01;;;;;;;5.40;4.43;;;27.50;99.90;;;;;;5032211;28;20259;-67
2022/06/14 08:43:40;;;;;;;7.10;4.30;;;27.40;99.90;;;;;;5049364;28;20186;-66
2022/06/14 08:46:17;;;;;;;7.50;4.50;;;27.50;99.90;;;;;;5052041;28;20583;-67
2022/06/14 08:49:36;;;;;;;8.13;4.78;;;27.90;99.90;;;;;;5032287;28;20670;-67
2022/06/14 08:52:32;;;;;;;7.32;4.05;;;28.20;99.90;;;;;;4974489;28;20303;-66
2022/06/14 08:55:03;;;;;;;11.48;3.92;;;28.50;99.90;;;;;;5031613;28;20259;-67
2022/06/14 08:57:56;;;;;;;7.97;3.53;;;28.70;99.90;;;;;;5031774;28;20266;-65
2022/06/14 09:00:50;;;;;;;7.28;3.50;;;28.80;99.90;;;;;;5031619;28;20171;-66
2022/06/14 09:03:34;;;;;;;4.00;3.60;;;29.20;99.90;;;;;;5032227;28;20180;-66
2022/06/14 09:06:24;;;;;;;4.13;3.45;;;29.20;97.10;;;;;;5031776;28;20191;-66
2022/06/14 09:09:19;;;;;;;6.57;3.78;;;29.00;98.80;;;;;;5048753;28;20209;-66
2022/06/14 09:12:04;;;;;;;8.48;3.92;;;29.20;97.70;;;;;;5050600;28;20183;-66
2022/06/14 09:14:51;;;;;;;8.93;4.35;;;29.30;99.70;;;;;;5031131;28;20171;-67
2022/06/14 09:17:22;;;;;;;6.40;3.78;;;29.30;97.90;;;;;;5031659;28;20275;-67
2022/06/14 09:20:14;;;;;;;8.18;3.65;;;29.30;98.60;;;;;;5031511;28;20671;-66
2022/06/14 09:23:14;;;;;;;5.53;3.75;;;29.60;98.70;;;;;;5032639;28;20631;-67
2022/06/14 09:25:51;;;;;;;8.13;4.40;;;29.20;96.00;;;;;;5030875;28;20199;-67
2022/06/14 09:28:20;;;;;;;7.75;3.95;;;28.80;96.80;;;;;;5042095;28;20226;-67
2022/06/14 09:31:34;;;;;;;5.68;4.20;;;28.30;95.80;;;;;;5051195;28;20178;-65
2022/06/14 09:34:14;;;;;;;6.93;4.28;;;27.40;94.90;;;;;;4989696;28;20226;-66
2022/06/14 09:37:10;;;;;;;7.80;4.65;;;27.00;97.40;;;;;;5031235;28;20180;-67
2022/06/14 09:39:50;;;;;;;9.05;4.28;;;27.20;99.00;;;;;;5031037;28;20203;-66
2022/06/14 09:42:40;;;;;;;11.25;4.47;;;27.60;99.10;;;;;;5042922;28;20189;-67
2022/06/14 09:45:20;;;;;;;5.90;4.28;;;27.30;95.70;;;;;;5047992;28;20184;-65
2022/06/14 09:48:10;;;;;;;5.70;3.78;;;26.80;97.10;;;;;;5034581;28;20179;-67
2022/06/14 09:50:44;;;;;;;6.80;4.70;;;26.70;97.60;;;;;;5042730;28;20186;-65
2022/06/14 09:53:53;;;;;;;6.70;4.47;;;26.30;99.00;;;;;;5043426;28;20210;-66
2022/06/14 09:56:40;;;;;;;7.22;4.00;;;26.10;99.40;;;;;;5050115;28;20641;-66
2022/06/14 09:59:24;;;;;;;4.15;3.78;;;26.50;98.80;;;;;;5050614;28;20198;-67
2022/06/14 10:01:59;;;;;;;5.75;3.67;;;27.00;98.40;;;;;;5046337;28;20642;-66
2022/06/14 10:05:15;;;;;;;5.45;3.95;;;27.20;99.30;;;;;;5050290;28;20174;-66
2022/06/14 10:08:03;;;;;;;6.65;4.15;;;27.50;96.90;;;;;;5002848;28;20265;-66
2022/06/14 10:10:34;;;;;;;5.18;4.13;;;28.20;98.80;;;;;;5036194;28;20195;-66
2022/06/14 10:13:12;;;;;;;9.48;3.80;;;29.00;97.30;;;;;;5031882;28;20261;-67
2022/06/14 10:16:15;;;;;;;5.75;3.85;;;29.80;97.40;;;;;;5039656;28;20186;-65
2022/06/14 10:18:52;;;;;;;7.50;3.90;;;29.90;93.00;;;;;;5030657;28;20270;-66
2022/06/14 10:21:38;;;;;;;4.05;3.50;;;29.00;94.40;;;;;;5040694;28;20266;-66
2022/06/14 10:24:06;;;;;;;6.55;3.22;;;28.70;93.70;;;;;;5051215;28;20194;-66
2022/06/14 10:30:05;;;;;;;6.50;4.00;;;28.90;93.10;;;;;;5064654;22;20270;-64
2022/06/14 10:32:41;;;;;;;5.22;4.05;;;28.50;93.40;;;;;;5034310;28;20568;-65
2022/06/14 10:35:45;;;;;;;9.25;4.43;;;27.70;92.80;;;;;;5034212;28;20183;-64
2022/06/14 10:38:37;;;;;;;7.35;4.03;;;27.50;92.90;;;;;;5034263;28;20265;-65
2022/06/14 10:41:29;;;;;;;5.75;4.07;;;27.60;93.90;;;;;;5034534;28;20195;-65
2022/06/14 10:44:04;;;;;;;4.82;4.03;;;28.20;95.10;;;;;;5034163;28;20176;-65
2022/06/14 10:46:39;;;;;;;6.60;3.33;;;28.80;94.40;;;;;;5029441;28;20175;-64
2022/06/14 10:49:20;;;;;;;5.75;3.80;;;29.40;94.60;;;;;;5014121;28;20206;-64
2022/06/14 10:51:55;;;;;;;7.63;4.13;;;29.60;91.40;;;;;;5014133;28;20184;-63
2022/06/14 10:54:44;;;;;;;6.28;3.88;;;29.60;92.40;;;;;;5012905;28;20180;-65
2022/06/14 10:57:52;;;;;;;8.30;4.10;;;29.30;91.30;;;;;;5014347;28;20199;-64
2022/06/14 11:00:41;;;;;;;5.97;4.05;;;29.20;93.40;;;;;;5000475;28;20576;-65
2022/06/14 11:03:23;;;;;;;10.32;4.10;;;29.20;91.40;;;;;;5013458;28;20226;-66
2022/06/14 11:06:20;;;;;;;5.90;3.97;;;29.40;91.80;;;;;;5014072;28;20219;-65
2022/06/14 11:09:18;;;;;;;6.05;3.72;;;29.90;92.20;;;;;;5012107;28;20211;-64
2022/06/14 11:11:54;;;;;;;9.13;3.60;;;30.10;93.90;;;;;;5014229;28;20279;-65
2022/06/14 11:14:23;;;;;;;5.75;3.80;;;30.40;93.70;;;;;;5013362;28;20180;-64
2022/06/14 11:17:10;;;;;;;6.95;3.60;;;30.30;92.20;;;;;;5013629;28;20200;-65
2022/06/14 11:19:48;;;;;;;13.77;4.22;;;30.10;90.40;;;;;;5013360;28;20254;-65
2022/06/14 11:22:39;;;;;;;4.57;3.92;;;29.70;93.40;;;;;;5032969;28;20175;-65
2022/06/14 11:25:36;;;;;;;5.10;3.67;;;29.60;91.20;;;;;;5023946;28;20690;-65
2022/06/14 11:28:23;;;;;;;5.68;4.15;;;29.50;92.00;;;;;;5013404;28;20188;-65
2022/06/14 11:31:27;;;;;;;7.22;3.88;;;29.60;92.40;;;;;;5013266;28;20195;-66
2022/06/14 11:34:12;;;;;;;8.13;4.38;;;29.00;92.90;;;;;;5012708;28;20192;-65
2022/06/14 11:36:52;;;;;;;7.28;4.35;;;29.00;92.80;;;;;;5013408;28;20184;-64
2022/06/14 11:39:24;;;;;;;7.53;4.10;;;28.60;91.70;;;;;;5013126;28;20204;-65
2022/06/14 11:41:51;;;;;;;5.13;3.80;;;28.80;93.00;;;;;;5013217;28;20176;-64
2022/06/14 11:44:25;;;;;;;9.57;4.40;;;28.70;92.60;;;;;;5013136;28;20675;-66
2022/06/14 11:47:05;;;;;;;9.18;4.75;;;28.30;91.30;;;;;;5012755;28;20624;-64
2022/06/14 11:50:21;;;;;;;4.82;3.95;;;28.30;92.10;;;;;;5009973;28;20195;-66
2022/06/14 11:53:10;;;;;;;4.38;3.72;;;28.40;91.90;;;;;;5013144;28;20350;-64
2022/06/14 11:55:47;;;;;;;8.45;4.63;;;28.60;94.10;;;;;;4982590;28;20282;-65
2022/06/14 11:58:39;;;;;;;10.30;4.65;;;28.70;93.70;;;;;;5003951;28;20204;-65
2022/06/14 12:01:27;;;;;;;7.78;4.57;;;28.60;92.40;;;;;;5001088;28;20517;-65
2022/06/14 12:03:56;;;;;;;5.10;3.88;;;28.60;93.10;;;;;;5012749;28;20191;-66
2022/06/14 12:06:36;;;;;;;7.50;4.35;;;28.90;94.30;;;;;;5012769;28;20647;-64
2022/06/14 12:09:26;;;;;;;4.10;3.70;;;29.40;90.60;;;;;;5012766;28;20254;-65
2022/06/14 12:12:04;;;;;;;9.55;4.28;;;29.60;91.80;;;;;;5013031;28;20184;-65
2022/06/14 12:14:42;;;;;;;6.32;3.60;;;30.00;91.90;;;;;;5012444;28;20186;-64
2022/06/14 12:17:25;;;;;;;5.90;3.65;;;30.10;90.60;;;;;;5012781;28;20183;-66
2022/06/14 12:20:14;;;;;;;4.93;3.63;;;30.10;87.70;;;;;;5012505;28;20247;-65
2022/06/14 12:23:01;;;;;;;7.82;4.32;;;29.40;89.20;;;;;;5010957;28;20176;-65
2022/06/14 12:28:50;;;;;;;6.68;4.45;;;28.50;90.30;;;;;;5012338;28;20234;-65
2022/06/14 12:31:27;;;;;;;5.45;3.83;;;28.70;90.80;;;;;;5012537;28;20631;-64
2022/06/14 12:34:05;;;;;;;3.88;3.47;;;29.30;89.70;;;;;;5012131;28;20201;-65
2022/06/14 12:36:42;;;;;;;6.75;4.28;;;29.90;90.80;;;;;;4992935;28;20169;-65
2022/06/14 12:39:20;;;;;;;5.18;3.78;;;30.50;91.40;;;;;;5008920;28;20229;-66
2022/06/14 12:42:10;;;;;;;7.72;3.75;;;30.70;90.40;;;;;;5012585;28;20168;-65
2022/06/14 12:44:55;;;;;;;5.78;3.55;;;30.70;93.00;;;;;;5011678;28;20200;-65
2022/06/14 12:47:53;;;;;;;4.95;4.10;;;30.50;87.60;;;;;;5011353;28;20191;-65
2022/06/14 12:50:36;;;;;;;6.07;4.00;;;30.20;89.60;;;;;;5009934;28;20220;-66
2022/06/14 12:53:27;;;;;;;6.13;3.60;;;30.30;86.10;;;;;;5013862;28;20211;-66
2022/06/14 12:55:59;;;;;;;4.72;3.95;;;30.00;87.70;;;;;;5000862;28;20178;-66
2022/06/14 12:58:31;;;;;;;7.10;3.83;;;29.80;83.00;;;;;;5011532;28;20503;-65
2022/06/14 13:01:19;;;;;;;7.55;4.13;;;29.80;89.90;;;;;;5012021;28;20180;-65
2022/06/14 13:03:53;;;;;;;4.88;3.95;;;29.70;90.10;;;;;;5011545;28;20168;-65
2022/06/14 13:06:54;;;;;;;3.90;3.50;;;30.00;86.20;;;;;;5011912;28;20550;-65
2022/06/14 13:09:28;;;;;;;4.15;3.28;;;30.20;90.00;;;;;;5011487;28;20199;-64
2022/06/14 13:12:22;;;;;;;8.00;3.80;;;30.50;90.00;;;;;;5011900;28;20226;-65
2022/06/14 13:15:17;;;;;;;7.60;4.03;;;30.40;83.20;;;;;;5011527;28;20180;-65
2022/06/14 13:18:03;;;;;;;3.60;3.30;;;29.60;84.00;;;;;;5011840;28;20168;-65
2022/06/14 13:20:34;;;;;;;3.72;3.42;;;29.20;83.70;;;;;;5010215;28;20613;-65
2022/06/14 13:23:18;;;;;;;6.75;4.53;;;29.10;90.20;;;;;;5011642;28;20187;-64
2022/06/14 13:25:53;;;;;;;4.90;3.80;;;28.90;82.50;;;;;;5011478;28;20176;-64
2022/06/14 13:28:49;;;;;;;5.50;3.88;;;29.00;83.60;;;;;;5011301;28;20826;-65
2022/06/14 13:31:37;;;;;;;4.38;4.00;;;28.80;83.70;;;;;;5011768;28;20804;-66
2022/06/14 13:34:27;;;;;;;6.32;4.32;;;28.50;86.50;;;;;;5011331;28;20276;-65
2022/06/14 13:37:05;;;;;;;4.65;3.88;;;28.20;86.50;;;;;;5011269;28;20176;-65
2022/06/14 13:39:46;;;;;;;5.78;4.20;;;28.60;85.00;;;;;;5011893;28;20200;-65
2022/06/14 13:42:36;;;;;;;7.93;3.80;;;28.60;83.20;;;;;;5011301;28;20176;-65
2022/06/14 13:45:25;;;;;;;6.68;4.13;;;28.80;88.50;;;;;;5011330;28;20223;-65
2022/06/14 13:48:31;;;;;;;4.70;3.38;;;29.00;84.00;;;;;;4991932;28;20177;-64
2022/06/14 13:51:26;;;;;;;7.53;3.85;;;29.50;90.90;;;;;;5006685;28;20179;-64
2022/06/14 13:54:06;;;;;;;6.97;3.40;;;29.90;80.40;;;;;;5008901;28;20690;-65
2022/06/14 13:56:50;;;;;;;5.10;3.90;;;30.30;87.00;;;;;;5010562;28;20211;-65
2022/06/14 13:59:23;;;;;;;6.18;4.50;;;30.20;87.40;;;;;;5015325;28;20279;-65
2022/06/14 14:01:54;;;;;;;5.97;4.35;;;29.90;83.60;;;;;;4995723;28;20203;-64
2022/06/14 14:04:38;;;;;;;4.10;3.70;;;29.20;80.20;;;;;;4994950;28;20228;-64